createdAt,value
2017-11-24T00:00:38.082Z,84.86
2017-11-24T00:01:38.029Z,84.67
2017-11-24T00:02:37.973Z,85.34
2017-11-24T00:03:37.910Z,85.15
2017-11-24T00:04:37.853Z,85.53
2017-11-24T00:05:37.789Z,85.34
2017-11-24T00:06:37.746Z,85.63
2017-11-24T00:07:37.670Z,85.82
2017-11-24T00:08:37.612Z,86.39
2017-11-24T00:09:37.554Z,86.39
2017-11-24T00:10:37.505Z,86.49
2017-11-24T00:11:37.435Z,86.10
2017-11-24T00:12:37.376Z,86.54
2017-11-24T00:13:37.327Z,86.06
2017-11-24T00:14:37.258Z,86.16
2017-11-24T00:15:37.199Z,86.35
2017-11-24T00:16:37.143Z,86.82
2017-11-24T00:17:37.084Z,87.11
2017-11-24T00:18:37.031Z,87.68
2017-11-24T00:19:36.970Z,87.68
2017-11-24T00:20:36.916Z,87.68
2017-11-24T00:21:36.860Z,87.59
2017-11-24T00:22:36.792Z,87.49
2017-11-24T00:23:36.732Z,87.49
2017-11-24T00:24:36.676Z,87.21
2017-11-24T00:25:36.615Z,88.16
2017-11-24T00:26:36.554Z,88.07
2017-11-24T00:27:36.498Z,88.16
2017-11-24T00:28:36.433Z,87.97
2017-11-24T00:29:36.381Z,88.26
2017-11-24T00:30:36.317Z,88.26
2017-11-24T00:31:36.261Z,88.07
2017-11-24T00:32:36.220Z,88.64
2017-11-24T00:33:36.146Z,87.97
2017-11-24T00:34:36.087Z,88.16
2017-11-24T00:35:36.030Z,88.83
2017-11-24T00:36:35.977Z,88.54
2017-11-24T00:37:35.921Z,88.45
2017-11-24T00:38:35.877Z,88.40
2017-11-24T00:39:35.794Z,88.78
2017-11-24T00:40:35.730Z,88.59
2017-11-24T00:41:35.672Z,88.64
2017-11-24T00:42:35.611Z,88.40
2017-11-24T00:43:35.548Z,88.98
2017-11-24T00:44:35.493Z,89.26
2017-11-24T00:45:35.441Z,88.78
2017-11-24T00:46:35.371Z,88.78
2017-11-24T00:47:35.315Z,89.07
2017-11-24T00:48:35.257Z,89.93
2017-11-24T00:49:35.197Z,89.64
2017-11-24T00:50:35.146Z,89.83
2017-11-24T00:51:35.090Z,89.74
2017-11-24T00:52:35.036Z,89.83
2017-11-24T00:53:34.960Z,89.64
2017-11-24T00:54:34.902Z,89.93
2017-11-24T00:55:34.847Z,89.93
2017-11-24T00:56:34.783Z,89.45
2017-11-24T00:57:34.719Z,90.03
2017-11-24T00:58:34.659Z,89.93
2017-11-24T00:59:34.601Z,89.83
2017-11-24T01:00:34.546Z,89.36
2017-11-24T01:01:34.488Z,89.93
2017-11-24T01:02:34.431Z,89.83
2017-11-24T01:03:34.372Z,89.36
2017-11-24T01:04:34.318Z,89.50
2017-11-24T01:05:34.260Z,88.78
2017-11-24T01:06:34.195Z,88.92
2017-11-24T01:07:34.134Z,88.92
2017-11-24T01:08:34.086Z,88.73
2017-11-24T01:09:34.019Z,89.12
2017-11-24T01:10:33.955Z,88.73
2017-11-24T01:11:33.896Z,88.92
2017-11-24T01:12:33.831Z,88.16
2017-11-24T01:13:33.800Z,88.54
2017-11-24T01:14:33.716Z,88.83
2017-11-24T01:15:33.658Z,88.26
2017-11-24T01:16:33.603Z,88.07
2017-11-24T01:17:33.543Z,88.07
2017-11-24T01:18:33.501Z,87.97
2017-11-24T01:19:33.432Z,87.97
2017-11-24T01:20:33.377Z,87.59
2017-11-24T01:21:33.322Z,87.30
2017-11-24T01:22:33.244Z,87.49
2017-11-24T01:23:33.208Z,87.97
2017-11-24T01:24:33.131Z,87.59
2017-11-24T01:25:33.071Z,87.68
2017-11-24T01:26:33.028Z,87.59
2017-11-24T01:27:32.962Z,87.78
2017-11-24T01:28:32.897Z,87.68
2017-11-24T01:29:32.834Z,88.07
2017-11-24T01:30:32.775Z,87.68
2017-11-24T01:31:32.717Z,87.59
2017-11-24T01:32:32.661Z,87.87
2017-11-24T01:33:32.605Z,87.30
2017-11-24T01:34:32.547Z,87.40
2017-11-24T01:35:32.493Z,87.49
2017-11-24T01:36:32.443Z,86.63
2017-11-24T01:37:32.391Z,86.73
2017-11-24T01:38:32.310Z,86.35
2017-11-24T01:39:32.252Z,86.44
2017-11-24T01:40:32.190Z,86.54
2017-11-24T01:41:32.131Z,86.25
2017-11-24T01:42:32.065Z,86.06
2017-11-24T01:43:32.006Z,85.77
2017-11-24T01:44:31.949Z,85.68
2017-11-24T01:45:31.899Z,85.11
2017-11-24T01:46:31.848Z,85.30
2017-11-24T01:47:31.776Z,85.97
2017-11-24T01:48:31.733Z,85.49
2017-11-24T01:49:31.663Z,85.97
2017-11-24T01:50:31.609Z,85.30
2017-11-24T01:51:31.553Z,85.77
2017-11-24T01:52:31.500Z,85.39
2017-11-24T01:53:31.444Z,85.30
2017-11-24T01:54:31.369Z,85.97
2017-11-24T01:55:31.307Z,85.49
2017-11-24T01:56:31.258Z,85.21
2017-11-24T01:57:31.191Z,85.30
2017-11-24T01:58:31.127Z,85.30
2017-11-24T01:59:31.069Z,85.49
2017-11-24T02:00:31.011Z,85.30
2017-11-24T02:01:30.962Z,85.39
2017-11-24T02:02:30.905Z,85.87
2017-11-24T02:03:30.850Z,85.87
2017-11-24T02:04:30.781Z,86.01
2017-11-24T02:05:30.725Z,85.97
2017-11-24T02:06:30.669Z,85.77
2017-11-24T02:07:30.614Z,85.68
2017-11-24T02:08:30.559Z,86.44
2017-11-24T02:09:30.505Z,85.87
2017-11-24T02:10:30.431Z,85.58
2017-11-24T02:11:30.371Z,85.68
2017-11-24T02:12:30.312Z,85.97
2017-11-24T02:13:30.253Z,85.97
2017-11-24T02:14:30.195Z,86.16
2017-11-24T02:15:30.134Z,86.16
2017-11-24T02:16:30.073Z,86.35
2017-11-24T02:17:30.015Z,86.54
2017-11-24T02:18:29.961Z,86.25
2017-11-24T02:19:29.902Z,86.44
2017-11-24T02:20:29.851Z,86.35
2017-11-24T02:21:29.796Z,86.16
2017-11-24T02:22:29.730Z,86.73
2017-11-24T02:23:29.676Z,86.44
2017-11-24T02:24:29.620Z,86.63
2017-11-24T02:25:29.566Z,86.16
2017-11-24T02:26:29.511Z,86.54
2017-11-24T02:27:29.438Z,86.63
2017-11-24T02:28:29.375Z,86.63
2017-11-24T02:29:29.319Z,86.92
2017-11-24T02:30:29.260Z,86.82
2017-11-24T02:31:29.207Z,87.11
2017-11-24T02:32:29.137Z,86.77
2017-11-24T02:33:29.078Z,87.30
2017-11-24T02:34:29.022Z,87.11
2017-11-24T02:35:28.966Z,87.78
2017-11-24T02:36:28.909Z,87.59
2017-11-24T02:37:28.850Z,87.59
2017-11-24T02:38:28.794Z,87.97
2017-11-24T02:39:28.746Z,88.35
2017-11-24T02:40:28.683Z,88.40
2017-11-24T02:41:28.617Z,87.97
2017-11-24T02:42:28.573Z,88.26
2017-11-24T02:43:28.519Z,88.35
2017-11-24T02:44:28.464Z,88.35
2017-11-24T02:45:28.384Z,88.64
2017-11-24T02:46:28.324Z,88.54
2017-11-24T02:47:28.266Z,87.97
2017-11-24T02:48:28.206Z,88.73
2017-11-24T02:49:28.142Z,87.97
2017-11-24T02:50:28.083Z,88.30
2017-11-24T02:51:28.029Z,88.26
2017-11-24T02:52:27.973Z,87.97
2017-11-24T02:53:27.913Z,87.97
2017-11-24T02:54:27.855Z,88.07
2017-11-24T02:55:27.798Z,87.87
2017-11-24T02:56:27.748Z,88.07
2017-11-24T02:57:27.689Z,88.16
2017-11-24T02:58:27.634Z,88.83
2017-11-24T02:59:27.579Z,88.54
2017-11-24T03:00:27.523Z,88.26
2017-11-24T03:01:27.447Z,88.35
2017-11-24T03:02:27.421Z,88.83
2017-11-24T03:03:27.330Z,88.73
2017-11-24T03:04:27.271Z,88.45
2017-11-24T03:05:27.212Z,88.45
2017-11-24T03:06:27.150Z,88.35
2017-11-24T03:07:27.095Z,88.83
2017-11-24T03:08:27.088Z,88.92
2017-11-24T03:09:26.975Z,88.83
2017-11-24T03:10:26.920Z,88.54
2017-11-24T03:11:26.864Z,88.54
2017-11-24T03:12:26.809Z,88.64
2017-11-24T03:13:26.759Z,88.64
2017-11-24T03:14:26.695Z,88.45
2017-11-24T03:15:26.644Z,88.64
2017-11-24T03:16:26.585Z,88.64
2017-11-24T03:17:26.530Z,88.35
2017-11-24T03:18:26.476Z,88.45
2017-11-24T03:19:26.395Z,88.45
2017-11-24T03:20:26.345Z,88.26
2017-11-24T03:21:26.277Z,88.35
2017-11-24T03:22:26.211Z,89.02
2017-11-24T03:23:26.153Z,88.73
2017-11-24T03:24:26.095Z,88.73
2017-11-24T03:25:26.039Z,88.92
2017-11-24T03:26:25.982Z,88.54
2017-11-24T03:27:25.927Z,88.54
2017-11-24T03:28:25.872Z,88.35
2017-11-24T03:29:25.811Z,88.83
2017-11-24T03:30:25.760Z,88.83
2017-11-24T03:31:25.701Z,88.73
2017-11-24T03:32:25.645Z,88.54
2017-11-24T03:33:25.599Z,88.54
2017-11-24T03:34:25.518Z,88.83
2017-11-24T03:35:25.457Z,89.02
2017-11-24T03:36:25.404Z,88.92
2017-11-24T03:37:25.344Z,88.83
2017-11-24T03:38:25.286Z,88.92
2017-11-24T03:39:25.217Z,89.21
2017-11-24T03:40:25.161Z,88.92
2017-11-24T03:41:25.102Z,89.02
2017-11-24T03:42:25.043Z,89.12
2017-11-24T03:43:24.990Z,89.21
2017-11-24T03:44:24.938Z,88.83
2017-11-24T03:45:24.871Z,88.73
2017-11-24T03:46:24.817Z,88.73
2017-11-24T03:47:24.761Z,88.83
2017-11-24T03:48:24.705Z,88.92
2017-11-24T03:49:24.637Z,89.31
2017-11-24T03:50:24.574Z,89.69
2017-11-24T03:51:24.520Z,89.50
2017-11-24T03:52:24.461Z,89.78
2017-11-24T03:53:24.401Z,89.40
2017-11-24T03:54:24.343Z,89.88
2017-11-24T03:55:24.276Z,89.59
2017-11-24T03:56:24.219Z,89.88
2017-11-24T03:57:24.169Z,89.59
2017-11-24T03:58:24.105Z,89.97
2017-11-24T03:59:24.052Z,90.07
2017-11-24T04:00:23.990Z,89.97
2017-11-24T04:01:23.937Z,90.26
2017-11-24T04:02:23.887Z,89.97
2017-11-24T04:03:23.822Z,90.55
2017-11-24T04:04:23.768Z,90.26
2017-11-24T04:05:23.712Z,90.64
2017-11-24T04:06:23.651Z,90.36
2017-11-24T04:07:23.580Z,90.45
2017-11-24T04:08:23.525Z,90.55
2017-11-24T04:09:23.482Z,90.45
2017-11-24T04:10:23.406Z,90.45
2017-11-24T04:11:23.340Z,90.45
2017-11-24T04:12:23.283Z,90.73
2017-11-24T04:13:23.224Z,90.73
2017-11-24T04:14:23.166Z,91.02
2017-11-24T04:15:23.115Z,90.83
2017-11-24T04:16:23.055Z,91.21
2017-11-24T04:17:22.998Z,91.31
2017-11-24T04:18:22.935Z,91.31
2017-11-24T04:19:22.882Z,91.31
2017-11-24T04:20:22.830Z,91.60
2017-11-24T04:21:22.773Z,92.36
2017-11-24T04:22:22.702Z,92.32
2017-11-24T04:23:22.640Z,92.41
2017-11-24T04:24:22.584Z,92.69
2017-11-24T04:25:22.523Z,92.88
2017-11-24T04:26:22.466Z,92.69
2017-11-24T04:27:22.400Z,92.98
2017-11-24T04:28:22.341Z,92.32
2017-11-24T04:29:22.284Z,92.98
2017-11-24T04:30:22.244Z,92.88
2017-11-24T04:31:22.171Z,92.98
2017-11-24T04:32:22.115Z,93.27
2017-11-24T04:33:22.055Z,93.46
2017-11-24T04:34:22.000Z,93.36
2017-11-24T04:35:21.950Z,93.17
2017-11-24T04:36:21.889Z,93.55
2017-11-24T04:37:21.839Z,93.65
2017-11-24T04:38:21.759Z,93.84
2017-11-24T04:39:21.699Z,94.32
2017-11-24T04:40:21.649Z,94.12
2017-11-24T04:41:21.586Z,94.12
2017-11-24T04:42:21.522Z,94.12
2017-11-24T04:43:21.458Z,94.65
2017-11-24T04:44:21.402Z,94.74
2017-11-24T04:45:21.347Z,94.65
2017-11-24T04:46:21.287Z,94.56
2017-11-24T04:47:21.228Z,95.22
2017-11-24T04:48:21.178Z,95.12
2017-11-24T04:49:21.115Z,95.32
2017-11-24T04:50:21.059Z,95.41
2017-11-24T04:51:21.004Z,94.65
2017-11-24T04:52:20.956Z,95.22
2017-11-24T04:53:20.879Z,95.32
2017-11-24T04:54:20.813Z,95.03
2017-11-24T04:55:20.755Z,94.93
2017-11-24T04:56:20.696Z,95.22
2017-11-24T04:57:20.641Z,95.41
2017-11-24T04:58:20.572Z,95.22
2017-11-24T04:59:20.514Z,95.03
2017-11-24T05:00:20.458Z,95.41
2017-11-24T05:01:20.401Z,95.41
2017-11-24T05:02:20.343Z,95.22
2017-11-24T05:03:20.284Z,95.32
2017-11-24T05:04:20.229Z,95.22
2017-11-24T05:05:20.174Z,95.22
2017-11-24T05:06:20.119Z,95.41
2017-11-24T05:07:20.050Z,94.65
2017-11-24T05:08:19.986Z,95.12
2017-11-24T05:09:19.928Z,94.65
2017-11-24T05:10:19.871Z,95.51
2017-11-24T05:11:19.807Z,94.84
2017-11-24T05:12:19.744Z,95.51
2017-11-24T05:13:19.688Z,94.56
2017-11-24T05:14:19.631Z,94.74
2017-11-24T05:15:19.571Z,94.74
2017-11-24T05:16:19.523Z,94.74
2017-11-24T05:17:19.456Z,94.27
2017-11-24T05:18:19.398Z,93.98
2017-11-24T05:19:19.345Z,94.08
2017-11-24T05:20:19.289Z,94.17
2017-11-24T05:21:19.235Z,94.27
2017-11-24T05:22:19.158Z,94.46
2017-11-24T05:23:19.098Z,94.08
2017-11-24T05:24:19.042Z,94.08
2017-11-24T05:25:18.981Z,93.74
2017-11-24T05:26:18.915Z,93.46
2017-11-24T05:27:18.865Z,93.93
2017-11-24T05:28:18.801Z,93.65
2017-11-24T05:29:18.740Z,93.08
2017-11-24T05:30:18.687Z,93.08
2017-11-24T05:31:18.625Z,93.17
2017-11-24T05:32:18.574Z,93.08
2017-11-24T05:33:18.514Z,93.08
2017-11-24T05:34:18.460Z,92.88
2017-11-24T05:35:18.405Z,93.17
2017-11-24T05:36:18.330Z,92.88
2017-11-24T05:37:18.269Z,93.27
2017-11-24T05:38:18.215Z,93.17
2017-11-24T05:39:18.154Z,92.60
2017-11-24T05:40:18.084Z,92.69
2017-11-24T05:41:18.034Z,92.88
2017-11-24T05:42:17.968Z,92.69
2017-11-24T05:43:17.912Z,92.50
2017-11-24T05:44:17.853Z,92.69
2017-11-24T05:45:17.797Z,92.50
2017-11-24T05:46:17.740Z,92.50
2017-11-24T05:47:17.684Z,92.69
2017-11-24T05:48:17.619Z,92.32
2017-11-24T05:49:17.575Z,92.41
2017-11-24T05:50:17.506Z,92.22
2017-11-24T05:51:17.440Z,92.79
2017-11-24T05:52:17.378Z,92.22
2017-11-24T05:53:17.331Z,92.41
2017-11-24T05:54:17.257Z,92.65
2017-11-24T05:55:17.200Z,92.55
2017-11-24T05:56:17.139Z,92.69
2017-11-24T05:57:17.085Z,92.65
2017-11-24T05:58:17.027Z,92.93
2017-11-24T05:59:16.973Z,92.84
2017-11-24T06:00:16.910Z,92.74
2017-11-24T06:01:16.854Z,92.74
2017-11-24T06:02:16.800Z,92.65
2017-11-24T06:03:16.746Z,92.74
2017-11-24T06:04:16.669Z,92.65
2017-11-24T06:05:16.614Z,92.65
2017-11-24T06:06:16.559Z,92.93
2017-11-24T06:07:16.493Z,92.46
2017-11-24T06:08:16.434Z,92.60
2017-11-24T06:09:16.371Z,92.60
2017-11-24T06:10:16.310Z,92.50
2017-11-24T06:11:16.255Z,92.50
2017-11-24T06:12:16.197Z,92.50
2017-11-24T06:13:16.140Z,92.50
2017-11-24T06:14:16.081Z,92.60
2017-11-24T06:15:16.024Z,92.60
2017-11-24T06:16:15.969Z,92.03
2017-11-24T06:17:15.900Z,92.60
2017-11-24T06:18:15.861Z,92.36
2017-11-24T06:19:15.784Z,92.55
2017-11-24T06:20:15.725Z,92.65
2017-11-24T06:21:15.666Z,93.32
2017-11-24T06:22:15.607Z,92.69
2017-11-24T06:23:15.541Z,92.69
2017-11-24T06:24:15.483Z,93.27
2017-11-24T06:25:15.424Z,92.84
2017-11-24T06:26:15.366Z,92.93
2017-11-24T06:27:15.308Z,92.65
2017-11-24T06:28:15.251Z,92.93
2017-11-24T06:29:15.198Z,92.84
2017-11-24T06:30:15.141Z,93.51
2017-11-24T06:31:15.084Z,93.03
2017-11-24T06:32:15.031Z,92.93
2017-11-24T06:33:14.956Z,92.93
2017-11-24T06:34:14.895Z,93.41
2017-11-24T06:35:14.835Z,92.84
2017-11-24T06:36:14.776Z,92.84
2017-11-24T06:37:14.711Z,93.41
2017-11-24T06:38:14.663Z,93.41
2017-11-24T06:39:14.604Z,93.41
2017-11-24T06:40:14.537Z,93.12
2017-11-24T06:41:14.480Z,93.65
2017-11-24T06:42:14.422Z,93.65
2017-11-24T06:43:14.369Z,93.27
2017-11-24T06:44:14.305Z,92.98
2017-11-24T06:45:14.255Z,92.88
2017-11-24T06:46:14.206Z,93.17
2017-11-24T06:47:14.172Z,92.60
2017-11-24T06:48:14.067Z,93.17
2017-11-24T06:49:14.007Z,93.08
2017-11-24T06:50:13.947Z,93.08
2017-11-24T06:51:13.891Z,92.88
2017-11-24T06:52:13.824Z,93.36
2017-11-24T06:53:13.766Z,93.27
2017-11-24T06:54:13.707Z,93.08
2017-11-24T06:55:13.651Z,93.17
2017-11-24T06:56:13.592Z,93.36
2017-11-24T06:57:13.544Z,92.98
2017-11-24T06:58:13.480Z,92.60
2017-11-24T06:59:13.426Z,92.60
2017-11-24T07:00:13.373Z,92.41
2017-11-24T07:01:13.296Z,92.50
2017-11-24T07:02:13.237Z,92.50
2017-11-24T07:03:13.176Z,92.50
2017-11-24T07:04:13.122Z,92.79
2017-11-24T07:05:13.060Z,92.69
2017-11-24T07:06:13.005Z,92.98
2017-11-24T07:07:12.937Z,93.27
2017-11-24T07:08:12.879Z,93.36
2017-11-24T07:09:12.824Z,92.69
2017-11-24T07:10:12.762Z,92.69
2017-11-24T07:11:12.714Z,92.69
2017-11-24T07:12:12.651Z,92.98
2017-11-24T07:13:12.583Z,93.46
2017-11-24T07:14:12.539Z,92.88
2017-11-24T07:15:12.484Z,92.60
2017-11-24T07:16:12.408Z,92.22
2017-11-24T07:17:12.353Z,92.60
2017-11-24T07:18:12.302Z,92.69
2017-11-24T07:19:12.224Z,92.41
2017-11-24T07:20:12.166Z,92.41
2017-11-24T07:21:12.108Z,92.41
2017-11-24T07:22:12.055Z,92.12
2017-11-24T07:23:11.993Z,92.32
2017-11-24T07:24:11.934Z,92.12
2017-11-24T07:25:11.877Z,92.50
2017-11-24T07:26:11.825Z,92.69
2017-11-24T07:27:11.765Z,92.41
2017-11-24T07:28:11.710Z,92.22
2017-11-24T07:29:11.660Z,92.50
2017-11-24T07:30:11.583Z,91.93
2017-11-24T07:31:11.531Z,91.74
2017-11-24T07:32:11.461Z,91.55
2017-11-24T07:33:11.402Z,91.27
2017-11-24T07:34:11.345Z,91.55
2017-11-24T07:35:11.280Z,91.27
2017-11-24T07:36:11.222Z,90.98
2017-11-24T07:37:11.165Z,91.21
2017-11-24T07:38:11.108Z,91.07
2017-11-24T07:39:11.048Z,90.12
2017-11-24T07:40:11.001Z,90.41
2017-11-24T07:41:10.937Z,90.69
2017-11-24T07:42:10.870Z,90.41
2017-11-24T07:43:10.826Z,90.64
2017-11-24T07:44:10.771Z,90.50
2017-11-24T07:45:10.695Z,90.36
2017-11-24T07:46:10.636Z,90.36
2017-11-24T07:47:10.577Z,89.97
2017-11-24T07:48:10.519Z,89.97
2017-11-24T07:49:10.454Z,89.69
2017-11-24T07:50:10.394Z,89.59
2017-11-24T07:51:10.336Z,89.97
2017-11-24T07:52:10.308Z,89.78
2017-11-24T07:53:10.222Z,89.69
2017-11-24T07:54:10.164Z,89.78
2017-11-24T07:55:10.107Z,89.69
2017-11-24T07:56:10.053Z,89.50
2017-11-24T07:57:09.995Z,89.69
2017-11-24T07:58:09.941Z,89.59
2017-11-24T07:59:09.886Z,89.12
2017-11-24T08:00:09.812Z,89.69
2017-11-24T08:01:09.754Z,89.40
2017-11-24T08:02:09.693Z,89.40
2017-11-24T08:03:09.629Z,89.59
2017-11-24T08:04:09.574Z,89.40
2017-11-24T08:05:09.516Z,89.69
2017-11-24T08:06:09.452Z,89.78
2017-11-24T08:07:09.395Z,89.78
2017-11-24T08:08:09.338Z,89.50
2017-11-24T08:09:09.280Z,88.83
2017-11-24T08:10:09.222Z,89.69
2017-11-24T08:11:09.167Z,89.02
2017-11-24T08:12:09.112Z,88.83
2017-11-24T08:13:09.057Z,88.64
2017-11-24T08:14:09.002Z,88.83
2017-11-24T08:15:08.928Z,88.64
2017-11-24T08:16:08.872Z,88.68
2017-11-24T08:17:08.812Z,87.82
2017-11-24T08:18:08.751Z,87.54
2017-11-24T08:19:08.693Z,87.06
2017-11-24T08:20:08.635Z,87.35
2017-11-24T08:21:08.584Z,87.25
2017-11-24T08:22:08.514Z,87.06
2017-11-24T08:23:08.458Z,86.68
2017-11-24T08:24:08.409Z,86.10
2017-11-24T08:25:08.341Z,87.15
2017-11-24T08:26:08.285Z,87.06
2017-11-24T08:27:08.227Z,87.44
2017-11-24T08:28:08.180Z,87.15
2017-11-24T08:29:08.123Z,87.15
2017-11-24T08:30:08.065Z,87.06
2017-11-24T08:31:08.010Z,86.87
2017-11-24T08:32:07.937Z,87.15
2017-11-24T08:33:07.878Z,86.39
2017-11-24T08:34:07.820Z,86.10
2017-11-24T08:35:07.762Z,86.68
2017-11-24T08:36:07.705Z,86.68
2017-11-24T08:37:07.642Z,86.96
2017-11-24T08:38:07.588Z,86.30
2017-11-24T08:39:07.529Z,86.39
2017-11-24T08:40:07.463Z,86.30
2017-11-24T08:41:07.423Z,86.20
2017-11-24T08:42:07.353Z,85.77
2017-11-24T08:43:07.294Z,84.81
2017-11-24T08:44:07.245Z,84.43
2017-11-24T08:45:07.192Z,84.14
2017-11-24T08:46:07.124Z,84.72
2017-11-24T08:47:07.071Z,84.91
2017-11-24T08:48:07.014Z,85.00
2017-11-24T08:49:06.958Z,84.91
2017-11-24T08:50:06.905Z,85.19
2017-11-24T08:51:06.850Z,85.19
2017-11-24T08:52:06.771Z,85.19
2017-11-24T08:53:06.719Z,85.38
2017-11-24T08:54:06.659Z,85.48
2017-11-24T08:55:06.601Z,85.67
2017-11-24T08:56:06.541Z,85.77
2017-11-24T08:57:06.485Z,86.05
2017-11-24T08:58:06.419Z,85.67
2017-11-24T08:59:06.365Z,85.15
2017-11-24T09:00:06.319Z,85.25
2017-11-24T09:01:06.249Z,85.44
2017-11-24T09:02:06.195Z,85.63
2017-11-24T09:03:06.137Z,85.25
2017-11-24T09:04:06.087Z,85.53
2017-11-24T09:05:06.027Z,85.72
2017-11-24T09:06:05.977Z,86.01
2017-11-24T09:07:05.912Z,86.39
2017-11-24T09:08:05.856Z,85.34
2017-11-24T09:09:05.802Z,85.34
2017-11-24T09:10:05.749Z,85.53
2017-11-24T09:11:05.691Z,85.53
2017-11-24T09:12:05.617Z,85.58
2017-11-24T09:13:05.557Z,84.96
2017-11-24T09:14:05.508Z,84.81
2017-11-24T09:15:05.443Z,84.72
2017-11-24T09:16:05.386Z,84.23
2017-11-24T09:17:05.336Z,83.57
2017-11-24T09:18:05.270Z,82.84
2017-11-24T09:19:05.207Z,82.31
2017-11-24T09:20:05.147Z,81.51
2017-11-24T09:21:05.093Z,81.65
2017-11-24T09:22:05.040Z,79.05
2017-11-24T09:23:04.974Z,78.24
2017-11-24T09:24:04.922Z,78.91
2017-11-24T09:25:04.864Z,78.24
2017-11-24T09:26:04.811Z,76.02
2017-11-24T09:27:04.763Z,74.62
2017-11-24T09:28:04.698Z,73.19
2017-11-24T09:29:04.645Z,72.74
2017-11-24T09:30:04.590Z,72.80
2017-11-24T09:31:04.535Z,72.17
2017-11-24T09:32:04.478Z,71.88
2017-11-24T09:33:04.426Z,71.50
2017-11-24T09:34:04.373Z,71.88
2017-11-24T09:35:04.293Z,72.52
2017-11-24T09:36:04.239Z,72.86
2017-11-24T09:37:04.189Z,74.20
2017-11-24T09:38:04.130Z,74.49
2017-11-24T09:39:04.069Z,75.51
2017-11-24T09:40:04.013Z,75.70
2017-11-24T09:41:03.957Z,76.14
2017-11-24T09:42:03.900Z,76.90
2017-11-24T09:43:03.844Z,76.56
2017-11-24T09:44:03.798Z,76.94
2017-11-24T09:45:03.732Z,76.18
2017-11-24T09:46:03.672Z,75.70
2017-11-24T09:47:03.610Z,75.22
2017-11-24T09:48:03.575Z,75.12
2017-11-24T09:49:03.501Z,75.22
2017-11-24T09:50:03.448Z,76.18
2017-11-24T09:51:03.389Z,75.70
2017-11-24T09:52:03.336Z,75.41
2017-11-24T09:53:03.277Z,75.60
2017-11-24T09:54:03.221Z,75.31
2017-11-24T09:55:03.169Z,75.79
2017-11-24T09:56:03.119Z,75.79
2017-11-24T09:57:03.062Z,75.31
2017-11-24T09:58:02.997Z,75.22
2017-11-24T09:59:02.941Z,74.84
2017-11-24T10:00:02.889Z,74.45
2017-11-24T10:01:02.833Z,74.49
2017-11-24T10:02:02.776Z,74.40
2017-11-24T10:03:02.721Z,74.20
2017-11-24T10:04:02.668Z,73.47
2017-11-24T10:05:02.611Z,72.77
2017-11-24T10:06:02.557Z,72.71
2017-11-24T10:07:02.495Z,72.96
2017-11-24T10:08:02.456Z,73.15
2017-11-24T10:09:02.391Z,73.44
2017-11-24T10:10:02.328Z,74.01
2017-11-24T10:11:02.284Z,74.01
2017-11-24T10:12:02.228Z,74.45
2017-11-24T10:13:02.173Z,74.74
2017-11-24T10:14:02.117Z,75.12
2017-11-24T10:15:02.062Z,75.51
2017-11-24T10:16:02.008Z,75.22
2017-11-24T10:17:01.954Z,74.99
2017-11-24T10:18:01.899Z,75.41
2017-11-24T10:19:01.825Z,75.51
2017-11-24T10:20:01.770Z,75.85
2017-11-24T10:21:01.712Z,75.27
2017-11-24T10:22:01.663Z,75.27
2017-11-24T10:23:01.599Z,75.79
2017-11-24T10:24:01.542Z,75.79
2017-11-24T10:25:01.489Z,75.70
2017-11-24T10:26:01.433Z,75.70
2017-11-24T10:27:01.375Z,75.27
2017-11-24T10:28:01.329Z,75.85
2017-11-24T10:29:01.262Z,75.85
2017-11-24T10:30:01.210Z,75.95
2017-11-24T10:31:01.144Z,75.79
2017-11-24T10:32:01.085Z,76.18
2017-11-24T10:33:01.029Z,75.98
2017-11-24T10:34:00.973Z,75.51
2017-11-24T10:35:00.918Z,76.27
2017-11-24T10:36:00.864Z,75.51
2017-11-24T10:37:00.808Z,75.31
2017-11-24T10:38:00.751Z,75.51
2017-11-24T10:39:00.697Z,76.18
2017-11-24T10:40:00.647Z,75.70
2017-11-24T10:41:00.584Z,75.22
2017-11-24T10:42:00.536Z,75.70
2017-11-24T10:43:00.468Z,75.41
2017-11-24T10:44:00.413Z,76.18
2017-11-24T10:45:00.361Z,76.08
2017-11-24T10:46:00.305Z,75.60
2017-11-24T10:47:00.252Z,75.79
2017-11-24T10:48:00.194Z,75.89
2017-11-24T10:49:00.134Z,75.41
2017-11-24T10:50:00.087Z,75.22
2017-11-24T10:51:00.031Z,75.41
2017-11-24T10:51:59.975Z,75.51
2017-11-24T10:52:59.920Z,75.22
2017-11-24T10:53:59.866Z,75.31
2017-11-24T10:54:59.794Z,75.79
2017-11-24T10:55:59.732Z,75.41
2017-11-24T10:56:59.679Z,75.22
2017-11-24T10:57:59.624Z,75.41
2017-11-24T10:58:59.566Z,75.16
2017-11-24T10:59:59.508Z,75.16
2017-11-24T11:00:59.454Z,74.97
2017-11-24T11:01:59.396Z,74.97
2017-11-24T11:02:59.333Z,74.87
2017-11-24T11:03:59.283Z,75.07
2017-11-24T11:04:59.222Z,74.87
2017-11-24T11:05:59.169Z,74.77
2017-11-24T11:06:59.127Z,74.77
2017-11-24T11:07:59.050Z,74.87
2017-11-24T11:08:59.000Z,75.35
2017-11-24T11:09:58.939Z,75.35
2017-11-24T11:10:58.884Z,75.54
2017-11-24T11:11:58.839Z,74.87
2017-11-24T11:12:58.773Z,75.31
2017-11-24T11:13:58.716Z,75.73
2017-11-24T11:14:58.661Z,74.97
2017-11-24T11:15:58.605Z,75.16
2017-11-24T11:16:58.548Z,75.22
2017-11-24T11:17:58.493Z,75.51
2017-11-24T11:18:58.436Z,75.89
2017-11-24T11:19:58.382Z,75.89
2017-11-24T11:20:58.328Z,75.98
2017-11-24T11:21:58.271Z,76.18
2017-11-24T11:22:58.216Z,75.60
2017-11-24T11:23:58.162Z,76.37
2017-11-24T11:24:58.108Z,76.37
2017-11-24T11:25:58.053Z,77.23
2017-11-24T11:26:58.002Z,76.75
2017-11-24T11:27:57.944Z,76.75
2017-11-24T11:28:57.866Z,76.12
2017-11-24T11:29:57.820Z,77.23
2017-11-24T11:30:57.756Z,76.18
2017-11-24T11:31:57.726Z,76.46
2017-11-24T11:32:57.641Z,76.50
2017-11-24T11:33:57.586Z,77.23
2017-11-24T11:34:57.536Z,76.79
2017-11-24T11:35:57.471Z,76.56
2017-11-24T11:36:57.418Z,76.89
2017-11-24T11:37:57.372Z,76.65
2017-11-24T11:38:57.295Z,76.84
2017-11-24T11:39:57.246Z,77.08
2017-11-24T11:40:57.182Z,77.33
2017-11-24T11:41:57.128Z,77.13
2017-11-24T11:42:57.076Z,77.04
2017-11-24T11:43:57.036Z,77.36
2017-11-24T11:44:56.960Z,76.94
2017-11-24T11:45:56.907Z,76.79
2017-11-24T11:46:56.846Z,76.98
2017-11-24T11:47:56.790Z,77.65
2017-11-24T11:48:56.734Z,77.17
2017-11-24T11:49:56.685Z,77.46
2017-11-24T11:50:56.623Z,77.33
2017-11-24T11:51:56.563Z,77.26
2017-11-24T11:52:56.511Z,77.36
2017-11-24T11:53:56.470Z,77.26
2017-11-24T11:54:56.403Z,77.46
2017-11-24T11:55:56.349Z,76.98
2017-11-24T11:56:56.288Z,77.23
2017-11-24T11:57:56.241Z,77.26
2017-11-24T11:58:56.186Z,77.46
2017-11-24T11:59:56.110Z,77.33
2017-11-24T12:00:56.055Z,77.94
2017-11-24T12:01:55.996Z,77.94
2017-11-24T12:02:55.937Z,77.94
2017-11-24T12:03:55.882Z,77.55
2017-11-24T12:04:55.826Z,77.84
2017-11-24T12:05:55.770Z,77.46
2017-11-24T12:06:55.714Z,77.55
2017-11-24T12:07:55.661Z,78.03
2017-11-24T12:08:55.593Z,77.99
2017-11-24T12:09:55.535Z,78.57
2017-11-24T12:10:55.481Z,78.28
2017-11-24T12:11:55.432Z,78.28
2017-11-24T12:12:55.368Z,77.99
2017-11-24T12:13:55.316Z,77.99
2017-11-24T12:14:55.255Z,78.09
2017-11-24T12:15:55.199Z,78.66
2017-11-24T12:16:55.143Z,78.19
2017-11-24T12:17:55.087Z,78.86
2017-11-24T12:18:55.029Z,78.95
2017-11-24T12:19:54.979Z,78.95
2017-11-24T12:20:54.920Z,79.05
2017-11-24T12:21:54.868Z,79.05
2017-11-24T12:22:54.810Z,79.33
2017-11-24T12:23:54.754Z,79.33
2017-11-24T12:24:54.699Z,79.62
2017-11-24T12:25:54.645Z,80.10
2017-11-24T12:26:54.590Z,79.52
2017-11-24T12:27:54.536Z,79.24
2017-11-24T12:28:54.469Z,80.19
2017-11-24T12:29:54.403Z,79.91
2017-11-24T12:30:54.345Z,80.29
2017-11-24T12:31:54.290Z,80.67
2017-11-24T12:32:54.236Z,80.58
2017-11-24T12:33:54.178Z,80.48
2017-11-24T12:34:54.121Z,80.77
2017-11-24T12:35:54.065Z,80.67
2017-11-24T12:36:56.633Z,81.44
2017-11-24T12:37:54.640Z,81.15
2017-11-24T12:38:55.638Z,80.96
2017-11-24T12:39:55.635Z,81.82
2017-11-24T12:40:56.142Z,82.64
2017-11-24T12:41:54.397Z,83.89
2017-11-24T12:42:55.646Z,83.69
2017-11-24T12:43:55.660Z,84.32
2017-11-24T12:44:57.640Z,84.99
2017-11-24T12:45:59.152Z,86.04
2017-11-24T12:46:55.139Z,87.29
2017-11-24T12:47:56.644Z,87.57
2017-11-24T12:48:55.142Z,87.53
2017-11-24T12:49:56.146Z,89.06
2017-11-24T12:51:03.143Z,90.11
2017-11-24T12:51:56.244Z,91.74